sensor_id;sensor_type;location;lat;lon;timestamp;P1;durP1;ratioP1;P2;durP2;ratioP2
66298;SDS011;53098;47.658;8.578;2024-02-04T00:01:33;4.70;;;2.03;;
66298;SDS011;53098;47.658;8.578;2024-02-04T00:03:58;4.40;;;1.80;;
66298;SDS011;53098;47.658;8.578;2024-02-04T00:06:24;4.70;;;2.07;;
66298;SDS011;53098;47.658;8.578;2024-02-04T00:08:49;4.20;;;1.73;;
66298;SDS011;53098;47.658;8.578;2024-02-04T00:11:14;6.20;;;2.20;;
66298;SDS011;53098;47.658;8.578;2024-02-04T00:13:39;4.33;;;1.83;;
66298;SDS011;53098;47.658;8.578;2024-02-04T00:16:05;4.53;;;2.10;;
66298;SDS011;53098;47.658;8.578;2024-02-04T00:18:30;3.97;;;1.80;;
66298;SDS011;53098;47.658;8.578;2024-02-04T00:20:55;4.00;;;2.40;;
66298;SDS011;53098;47.658;8.578;2024-02-04T00:23:20;3.50;;;1.70;;
66298;SDS011;53098;47.658;8.578;2024-02-04T00:25:46;4.53;;;2.47;;
66298;SDS011;53098;47.658;8.578;2024-02-04T00:28:11;7.93;;;2.00;;
66298;SDS011;53098;47.658;8.578;2024-02-04T00:30:36;3.85;;;1.92;;
66298;SDS011;53098;47.658;8.578;2024-02-04T00:33:02;4.60;;;2.15;;
66298;SDS011;53098;47.658;8.578;2024-02-04T00:35:27;3.78;;;1.98;;
66298;SDS011;53098;47.658;8.578;2024-02-04T00:37:52;4.53;;;1.90;;
66298;SDS011;53098;47.658;8.578;2024-02-04T00:40:18;5.27;;;1.87;;
66298;SDS011;53098;47.658;8.578;2024-02-04T00:42:43;3.60;;;1.90;;
66298;SDS011;53098;47.658;8.578;2024-02-04T00:45:08;4.77;;;1.77;;
66298;SDS011;53098;47.658;8.578;2024-02-04T00:47:34;4.95;;;2.70;;
66298;SDS011;53098;47.658;8.578;2024-02-04T00:49:59;4.60;;;1.70;;
66298;SDS011;53098;47.658;8.578;2024-02-04T00:52:24;5.03;;;1.70;;
66298;SDS011;53098;47.658;8.578;2024-02-04T00:54:49;4.70;;;1.97;;
66298;SDS011;53098;47.658;8.578;2024-02-04T00:57:15;4.47;;;2.00;;
66298;SDS011;53098;47.658;8.578;2024-02-04T00:59:40;4.17;;;1.80;;
66298;SDS011;53098;47.658;8.578;2024-02-04T01:02:05;4.00;;;1.70;;
66298;SDS011;53098;47.658;8.578;2024-02-04T01:04:30;3.40;;;1.80;;
66298;SDS011;53098;47.658;8.578;2024-02-04T01:06:55;3.17;;;1.60;;
66298;SDS011;53098;47.658;8.578;2024-02-04T01:09:21;2.77;;;1.43;;
66298;SDS011;53098;47.658;8.578;2024-02-04T01:11:46;4.43;;;1.97;;
66298;SDS011;53098;47.658;8.578;2024-02-04T01:14:11;3.23;;;1.80;;
66298;SDS011;53098;47.658;8.578;2024-02-04T01:16:36;4.93;;;2.00;;
66298;SDS011;53098;47.658;8.578;2024-02-04T01:19:02;4.90;;;1.90;;
66298;SDS011;53098;47.658;8.578;2024-02-04T01:21:27;4.40;;;1.77;;
66298;SDS011;53098;47.658;8.578;2024-02-04T01:23:52;3.37;;;1.73;;
66298;SDS011;53098;47.658;8.578;2024-02-04T01:26:17;3.30;;;1.85;;
66298;SDS011;53098;47.658;8.578;2024-02-04T01:28:43;4.13;;;1.80;;
66298;SDS011;53098;47.658;8.578;2024-02-04T01:31:08;2.93;;;1.43;;
66298;SDS011;53098;47.658;8.578;2024-02-04T01:33:33;4.90;;;2.23;;
66298;SDS011;53098;47.658;8.578;2024-02-04T01:35:58;5.17;;;2.20;;
66298;SDS011;53098;47.658;8.578;2024-02-04T01:38:24;4.03;;;1.73;;
66298;SDS011;53098;47.658;8.578;2024-02-04T01:40:49;4.00;;;1.50;;
66298;SDS011;53098;47.658;8.578;2024-02-04T01:43:14;3.40;;;1.60;;
66298;SDS011;53098;47.658;8.578;2024-02-04T01:45:39;3.77;;;1.63;;
66298;SDS011;53098;47.658;8.578;2024-02-04T01:48:05;5.67;;;2.40;;
66298;SDS011;53098;47.658;8.578;2024-02-04T01:50:30;4.00;;;1.70;;
66298;SDS011;53098;47.658;8.578;2024-02-04T01:52:56;3.17;;;1.50;;
66298;SDS011;53098;47.658;8.578;2024-02-04T01:55:21;3.67;;;1.30;;
66298;SDS011;53098;47.658;8.578;2024-02-04T01:57:47;3.80;;;1.50;;
66298;SDS011;53098;47.658;8.578;2024-02-04T02:00:13;3.47;;;1.40;;
66298;SDS011;53098;47.658;8.578;2024-02-04T02:02:39;3.17;;;1.42;;
66298;SDS011;53098;47.658;8.578;2024-02-04T02:05:04;4.13;;;1.67;;
66298;SDS011;53098;47.658;8.578;2024-02-04T02:07:30;3.28;;;1.52;;
66298;SDS011;53098;47.658;8.578;2024-02-04T02:09:55;2.42;;;1.30;;
66298;SDS011;53098;47.658;8.578;2024-02-04T02:14:52;3.00;;;1.40;;
66298;SDS011;53098;47.658;8.578;2024-02-04T02:17:21;2.30;;;1.40;;
66298;SDS011;53098;47.658;8.578;2024-02-04T02:20:10;1.90;;;1.20;;
66298;SDS011;53098;47.658;8.578;2024-02-04T02:25:05;2.58;;;1.30;;
66298;SDS011;53098;47.658;8.578;2024-02-04T02:27:32;2.95;;;1.35;;
66298;SDS011;53098;47.658;8.578;2024-02-04T02:29:57;2.97;;;1.20;;
66298;SDS011;53098;47.658;8.578;2024-02-04T02:32:23;2.70;;;1.27;;
66298;SDS011;53098;47.658;8.578;2024-02-04T02:34:48;2.75;;;1.40;;
66298;SDS011;53098;47.658;8.578;2024-02-04T02:37:27;2.75;;;1.27;;
66298;SDS011;53098;47.658;8.578;2024-02-04T02:39:56;4.22;;;1.20;;
66298;SDS011;53098;47.658;8.578;2024-02-04T02:42:23;3.20;;;1.35;;
66298;SDS011;53098;47.658;8.578;2024-02-04T02:44:48;2.28;;;1.20;;
66298;SDS011;53098;47.658;8.578;2024-02-04T02:47:15;1.77;;;1.00;;
66298;SDS011;53098;47.658;8.578;2024-02-04T02:49:40;2.03;;;0.90;;
66298;SDS011;53098;47.658;8.578;2024-02-04T02:52:05;2.90;;;1.10;;
66298;SDS011;53098;47.658;8.578;2024-02-04T02:54:31;2.97;;;1.13;;
66298;SDS011;53098;47.658;8.578;2024-02-04T02:56:56;2.20;;;1.20;;
66298;SDS011;53098;47.658;8.578;2024-02-04T02:59:21;3.33;;;1.10;;
66298;SDS011;53098;47.658;8.578;2024-02-04T03:01:46;2.67;;;1.10;;
66298;SDS011;53098;47.658;8.578;2024-02-04T03:04:11;4.33;;;1.57;;
66298;SDS011;53098;47.658;8.578;2024-02-04T03:06:37;2.20;;;1.20;;
66298;SDS011;53098;47.658;8.578;2024-02-04T03:09:02;2.77;;;1.20;;
66298;SDS011;53098;47.658;8.578;2024-02-04T03:11:27;2.30;;;0.90;;
66298;SDS011;53098;47.658;8.578;2024-02-04T03:13:53;1.20;;;1.00;;
66298;SDS011;53098;47.658;8.578;2024-02-04T03:16:18;1.37;;;0.90;;
66298;SDS011;53098;47.658;8.578;2024-02-04T03:18:43;5.10;;;0.97;;
66298;SDS011;53098;47.658;8.578;2024-02-04T03:21:12;2.47;;;0.83;;
66298;SDS011;53098;47.658;8.578;2024-02-04T03:23:37;2.80;;;0.90;;
66298;SDS011;53098;47.658;8.578;2024-02-04T03:26:03;1.63;;;0.90;;
66298;SDS011;53098;47.658;8.578;2024-02-04T03:28:28;3.03;;;0.85;;
66298;SDS011;53098;47.658;8.578;2024-02-04T03:30:53;2.40;;;0.90;;
66298;SDS011;53098;47.658;8.578;2024-02-04T03:33:18;2.00;;;1.00;;
66298;SDS011;53098;47.658;8.578;2024-02-04T03:35:44;4.53;;;1.00;;
66298;SDS011;53098;47.658;8.578;2024-02-04T03:38:09;1.63;;;0.87;;
66298;SDS011;53098;47.658;8.578;2024-02-04T03:40:34;1.30;;;0.80;;
66298;SDS011;53098;47.658;8.578;2024-02-04T03:42:59;3.03;;;1.00;;
66298;SDS011;53098;47.658;8.578;2024-02-04T03:45:25;2.97;;;0.80;;
66298;SDS011;53098;47.658;8.578;2024-02-04T03:47:50;1.57;;;0.93;;
66298;SDS011;53098;47.658;8.578;2024-02-04T03:50:15;2.42;;;1.10;;
66298;SDS011;53098;47.658;8.578;2024-02-04T03:52:41;2.93;;;1.07;;
66298;SDS011;53098;47.658;8.578;2024-02-04T03:55:06;1.60;;;0.90;;
66298;SDS011;53098;47.658;8.578;2024-02-04T03:57:32;2.17;;;0.90;;
66298;SDS011;53098;47.658;8.578;2024-02-04T03:59:57;1.42;;;0.90;;
66298;SDS011;53098;47.658;8.578;2024-02-04T04:02:22;1.40;;;0.90;;
66298;SDS011;53098;47.658;8.578;2024-02-04T04:04:47;2.07;;;1.30;;
66298;SDS011;53098;47.658;8.578;2024-02-04T04:07:13;1.53;;;1.20;;
66298;SDS011;53098;47.658;8.578;2024-02-04T04:09:38;1.20;;;0.80;;
66298;SDS011;53098;47.658;8.578;2024-02-04T04:12:03;3.03;;;0.90;;
66298;SDS011;53098;47.658;8.578;2024-02-04T04:14:29;2.13;;;0.85;;
66298;SDS011;53098;47.658;8.578;2024-02-04T04:16:54;2.40;;;1.37;;
66298;SDS011;53098;47.658;8.578;2024-02-04T04:19:19;2.40;;;1.23;;
66298;SDS011;53098;47.658;8.578;2024-02-04T04:21:44;2.70;;;0.93;;
66298;SDS011;53098;47.658;8.578;2024-02-04T04:24:09;1.57;;;1.10;;
66298;SDS011;53098;47.658;8.578;2024-02-04T04:26:35;1.33;;;0.70;;
66298;SDS011;53098;47.658;8.578;2024-02-04T04:29:00;1.23;;;0.70;;
66298;SDS011;53098;47.658;8.578;2024-02-04T04:31:25;3.67;;;0.90;;
66298;SDS011;53098;47.658;8.578;2024-02-04T04:33:50;1.33;;;0.70;;
66298;SDS011;53098;47.658;8.578;2024-02-04T04:36:16;2.07;;;1.10;;
66298;SDS011;53098;47.658;8.578;2024-02-04T04:38:41;2.60;;;1.00;;
66298;SDS011;53098;47.658;8.578;2024-02-04T04:41:06;2.07;;;0.70;;
66298;SDS011;53098;47.658;8.578;2024-02-04T04:43:31;1.83;;;0.90;;
66298;SDS011;53098;47.658;8.578;2024-02-04T04:45:57;2.93;;;0.80;;
66298;SDS011;53098;47.658;8.578;2024-02-04T04:48:22;6.87;;;0.90;;
66298;SDS011;53098;47.658;8.578;2024-02-04T04:50:47;1.37;;;1.10;;
66298;SDS011;53098;47.658;8.578;2024-02-04T04:53:12;2.90;;;0.70;;
66298;SDS011;53098;47.658;8.578;2024-02-04T04:55:37;4.10;;;0.60;;
66298;SDS011;53098;47.658;8.578;2024-02-04T04:58:03;2.10;;;0.70;;
66298;SDS011;53098;47.658;8.578;2024-02-04T05:00:28;2.75;;;0.65;;
66298;SDS011;53098;47.658;8.578;2024-02-04T05:02:53;1.07;;;0.70;;
66298;SDS011;53098;47.658;8.578;2024-02-04T05:05:19;1.70;;;0.57;;
66298;SDS011;53098;47.658;8.578;2024-02-04T05:07:44;1.93;;;1.03;;
66298;SDS011;53098;47.658;8.578;2024-02-04T05:10:09;4.17;;;0.70;;
66298;SDS011;53098;47.658;8.578;2024-02-04T05:12:35;1.17;;;0.63;;
66298;SDS011;53098;47.658;8.578;2024-02-04T05:15:01;1.80;;;0.80;;
66298;SDS011;53098;47.658;8.578;2024-02-04T05:17:26;2.23;;;0.60;;
66298;SDS011;53098;47.658;8.578;2024-02-04T05:19:52;1.55;;;0.68;;
66298;SDS011;53098;47.658;8.578;2024-02-04T05:22:17;0.60;;;0.55;;
66298;SDS011;53098;47.658;8.578;2024-02-04T05:24:42;0.63;;;0.50;;
66298;SDS011;53098;47.658;8.578;2024-02-04T05:27:07;1.13;;;0.43;;
66298;SDS011;53098;47.658;8.578;2024-02-04T05:29:33;0.63;;;0.40;;
66298;SDS011;53098;47.658;8.578;2024-02-04T05:31:58;1.63;;;0.93;;
66298;SDS011;53098;47.658;8.578;2024-02-04T05:34:23;0.20;;;0.20;;
66298;SDS011;53098;47.658;8.578;2024-02-04T05:36:49;1.65;;;0.68;;
66298;SDS011;53098;47.658;8.578;2024-02-04T05:39:15;0.83;;;0.43;;
66298;SDS011;53098;47.658;8.578;2024-02-04T05:41:41;0.93;;;0.55;;
66298;SDS011;53098;47.658;8.578;2024-02-04T05:44:06;0.90;;;0.88;;
66298;SDS011;53098;47.658;8.578;2024-02-04T05:46:32;4.70;;;0.40;;
66298;SDS011;53098;47.658;8.578;2024-02-04T05:48:57;0.67;;;0.40;;
66298;SDS011;53098;47.658;8.578;2024-02-04T05:51:23;0.77;;;0.52;;
66298;SDS011;53098;47.658;8.578;2024-02-04T05:53:48;1.40;;;0.47;;
66298;SDS011;53098;47.658;8.578;2024-02-04T05:56:13;0.53;;;0.50;;
66298;SDS011;53098;47.658;8.578;2024-02-04T05:58:39;0.40;;;0.40;;
66298;SDS011;53098;47.658;8.578;2024-02-04T06:01:04;0.65;;;0.52;;
66298;SDS011;53098;47.658;8.578;2024-02-04T06:03:29;0.63;;;0.40;;
66298;SDS011;53098;47.658;8.578;2024-02-04T06:05:55;0.53;;;0.53;;
66298;SDS011;53098;47.658;8.578;2024-02-04T06:08:20;1.58;;;0.60;;
66298;SDS011;53098;47.658;8.578;2024-02-04T06:10:45;0.27;;;0.27;;
66298;SDS011;53098;47.658;8.578;2024-02-04T06:13:11;0.70;;;0.50;;
66298;SDS011;53098;47.658;8.578;2024-02-04T06:15:36;0.63;;;0.57;;
66298;SDS011;53098;47.658;8.578;2024-02-04T06:18:01;0.50;;;0.40;;
66298;SDS011;53098;47.658;8.578;2024-02-04T06:20:26;0.90;;;0.60;;
66298;SDS011;53098;47.658;8.578;2024-02-04T06:22:52;0.90;;;0.43;;
66298;SDS011;53098;47.658;8.578;2024-02-04T06:25:17;0.30;;;0.30;;
66298;SDS011;53098;47.658;8.578;2024-02-04T06:27:42;1.43;;;0.50;;
66298;SDS011;53098;47.658;8.578;2024-02-04T06:30:08;0.77;;;0.40;;
66298;SDS011;53098;47.658;8.578;2024-02-04T06:32:33;2.50;;;0.60;;
66298;SDS011;53098;47.658;8.578;2024-02-04T06:34:58;0.87;;;0.37;;
66298;SDS011;53098;47.658;8.578;2024-02-04T06:37:23;1.70;;;0.97;;
66298;SDS011;53098;47.658;8.578;2024-02-04T06:39:49;3.73;;;0.70;;
66298;SDS011;53098;47.658;8.578;2024-02-04T06:42:14;0.87;;;0.37;;
66298;SDS011;53098;47.658;8.578;2024-02-04T06:44:42;1.13;;;0.60;;
66298;SDS011;53098;47.658;8.578;2024-02-04T06:47:07;1.20;;;0.60;;
66298;SDS011;53098;47.658;8.578;2024-02-04T06:49:32;3.07;;;0.50;;
66298;SDS011;53098;47.658;8.578;2024-02-04T06:51:57;1.87;;;0.80;;
66298;SDS011;53098;47.658;8.578;2024-02-04T06:54:23;1.07;;;0.70;;
66298;SDS011;53098;47.658;8.578;2024-02-04T06:56:48;0.63;;;0.40;;
66298;SDS011;53098;47.658;8.578;2024-02-04T06:59:13;0.67;;;0.40;;
66298;SDS011;53098;47.658;8.578;2024-02-04T07:01:39;2.73;;;0.50;;
66298;SDS011;53098;47.658;8.578;2024-02-04T07:04:04;0.20;;;0.20;;
66298;SDS011;53098;47.658;8.578;2024-02-04T07:06:29;1.03;;;0.40;;
66298;SDS011;53098;47.658;8.578;2024-02-04T07:08:54;1.67;;;0.50;;
66298;SDS011;53098;47.658;8.578;2024-02-04T07:11:20;1.80;;;0.60;;
66298;SDS011;53098;47.658;8.578;2024-02-04T07:13:45;0.80;;;0.50;;
66298;SDS011;53098;47.658;8.578;2024-02-04T07:16:10;2.93;;;0.70;;
66298;SDS011;53098;47.658;8.578;2024-02-04T07:18:35;0.83;;;0.40;;
66298;SDS011;53098;47.658;8.578;2024-02-04T07:21:01;0.60;;;0.30;;
66298;SDS011;53098;47.658;8.578;2024-02-04T07:23:26;2.58;;;0.70;;
66298;SDS011;53098;47.658;8.578;2024-02-04T07:25:52;1.30;;;0.30;;
66298;SDS011;53098;47.658;8.578;2024-02-04T07:28:17;0.67;;;0.40;;
66298;SDS011;53098;47.658;8.578;2024-02-04T07:30:42;1.23;;;0.57;;
66298;SDS011;53098;47.658;8.578;2024-02-04T07:33:07;2.03;;;0.70;;
66298;SDS011;53098;47.658;8.578;2024-02-04T07:35:33;0.77;;;0.60;;
66298;SDS011;53098;47.658;8.578;2024-02-04T07:37:58;1.93;;;0.50;;
66298;SDS011;53098;47.658;8.578;2024-02-04T07:40:23;1.10;;;0.50;;
66298;SDS011;53098;47.658;8.578;2024-02-04T07:42:48;0.95;;;0.50;;
66298;SDS011;53098;47.658;8.578;2024-02-04T07:45:14;1.08;;;0.40;;
66298;SDS011;53098;47.658;8.578;2024-02-04T07:47:39;0.50;;;0.33;;
66298;SDS011;53098;47.658;8.578;2024-02-04T07:50:04;0.33;;;0.30;;
66298;SDS011;53098;47.658;8.578;2024-02-04T07:52:30;0.40;;;0.40;;
66298;SDS011;53098;47.658;8.578;2024-02-04T07:54:55;0.87;;;0.57;;
66298;SDS011;53098;47.658;8.578;2024-02-04T07:57:20;1.23;;;0.57;;
66298;SDS011;53098;47.658;8.578;2024-02-04T07:59:46;0.40;;;0.33;;
66298;SDS011;53098;47.658;8.578;2024-02-04T08:02:11;2.50;;;0.50;;
66298;SDS011;53098;47.658;8.578;2024-02-04T08:04:36;2.83;;;1.00;;
66298;SDS011;53098;47.658;8.578;2024-02-04T08:07:02;1.17;;;0.60;;
66298;SDS011;53098;47.658;8.578;2024-02-04T08:09:27;0.60;;;0.60;;
66298;SDS011;53098;47.658;8.578;2024-02-04T08:11:52;1.43;;;0.80;;
66298;SDS011;53098;47.658;8.578;2024-02-04T08:14:17;2.13;;;1.03;;
66298;SDS011;53098;47.658;8.578;2024-02-04T08:16:43;1.67;;;0.47;;
66298;SDS011;53098;47.658;8.578;2024-02-04T08:19:08;0.50;;;0.50;;
66298;SDS011;53098;47.658;8.578;2024-02-04T08:21:33;0.40;;;0.27;;
66298;SDS011;53098;47.658;8.578;2024-02-04T08:23:59;1.52;;;0.50;;
66298;SDS011;53098;47.658;8.578;2024-02-04T08:26:24;1.20;;;0.80;;
66298;SDS011;53098;47.658;8.578;2024-02-04T08:28:50;1.45;;;0.85;;
66298;SDS011;53098;47.658;8.578;2024-02-04T08:31:15;0.98;;;0.60;;
66298;SDS011;53098;47.658;8.578;2024-02-04T08:33:40;1.57;;;0.70;;
66298;SDS011;53098;47.658;8.578;2024-02-04T08:36:06;2.20;;;0.73;;
66298;SDS011;53098;47.658;8.578;2024-02-04T08:38:31;0.80;;;0.60;;
66298;SDS011;53098;47.658;8.578;2024-02-04T08:40:56;1.73;;;0.80;;
66298;SDS011;53098;47.658;8.578;2024-02-04T08:43:21;1.97;;;0.70;;
66298;SDS011;53098;47.658;8.578;2024-02-04T08:45:47;0.93;;;0.50;;
66298;SDS011;53098;47.658;8.578;2024-02-04T08:48:12;3.00;;;0.73;;
66298;SDS011;53098;47.658;8.578;2024-02-04T08:50:37;1.33;;;0.60;;
66298;SDS011;53098;47.658;8.578;2024-02-04T08:53:03;0.50;;;0.50;;
66298;SDS011;53098;47.658;8.578;2024-02-04T08:55:28;3.20;;;1.00;;
66298;SDS011;53098;47.658;8.578;2024-02-04T08:57:53;0.68;;;0.40;;
66298;SDS011;53098;47.658;8.578;2024-02-04T09:00:19;1.30;;;0.50;;
66298;SDS011;53098;47.658;8.578;2024-02-04T09:02:44;0.73;;;0.50;;
66298;SDS011;53098;47.658;8.578;2024-02-04T09:05:10;1.17;;;0.45;;
66298;SDS011;53098;47.658;8.578;2024-02-04T09:07:35;2.10;;;0.43;;
66298;SDS011;53098;47.658;8.578;2024-02-04T09:10:00;1.17;;;0.80;;
66298;SDS011;53098;47.658;8.578;2024-02-04T09:12:25;0.67;;;0.40;;
66298;SDS011;53098;47.658;8.578;2024-02-04T09:14:51;1.03;;;0.30;;
66298;SDS011;53098;47.658;8.578;2024-02-04T09:17:16;4.57;;;0.50;;
66298;SDS011;53098;47.658;8.578;2024-02-04T09:19:41;0.57;;;0.33;;
66298;SDS011;53098;47.658;8.578;2024-02-04T09:22:06;1.23;;;0.53;;
66298;SDS011;53098;47.658;8.578;2024-02-04T09:24:32;2.15;;;0.80;;
66298;SDS011;53098;47.658;8.578;2024-02-04T09:26:57;2.30;;;0.50;;
66298;SDS011;53098;47.658;8.578;2024-02-04T09:29:22;1.10;;;0.60;;
66298;SDS011;53098;47.658;8.578;2024-02-04T09:31:48;0.73;;;0.47;;
66298;SDS011;53098;47.658;8.578;2024-02-04T09:34:13;1.63;;;0.53;;
66298;SDS011;53098;47.658;8.578;2024-02-04T09:36:38;0.83;;;0.50;;
66298;SDS011;53098;47.658;8.578;2024-02-04T09:39:04;0.73;;;0.40;;
66298;SDS011;53098;47.658;8.578;2024-02-04T09:41:29;0.83;;;0.50;;
66298;SDS011;53098;47.658;8.578;2024-02-04T09:43:54;0.70;;;0.30;;
66298;SDS011;53098;47.658;8.578;2024-02-04T09:46:20;4.45;;;1.00;;
66298;SDS011;53098;47.658;8.578;2024-02-04T09:48:45;3.00;;;0.90;;
66298;SDS011;53098;47.658;8.578;2024-02-04T09:51:11;4.72;;;1.50;;
66298;SDS011;53098;47.658;8.578;2024-02-04T09:53:36;2.45;;;0.95;;
66298;SDS011;53098;47.658;8.578;2024-02-04T09:56:05;1.60;;;0.70;;
66298;SDS011;53098;47.658;8.578;2024-02-04T09:58:31;1.63;;;0.32;;
66298;SDS011;53098;47.658;8.578;2024-02-04T10:00:56;0.30;;;0.30;;
66298;SDS011;53098;47.658;8.578;2024-02-04T10:03:22;2.25;;;0.52;;
66298;SDS011;53098;47.658;8.578;2024-02-04T10:05:47;0.77;;;0.50;;
66298;SDS011;53098;47.658;8.578;2024-02-04T10:08:13;0.73;;;0.20;;
66298;SDS011;53098;47.658;8.578;2024-02-04T10:10:38;1.23;;;0.40;;
66298;SDS011;53098;47.658;8.578;2024-02-04T10:13:10;0.75;;;0.40;;
66298;SDS011;53098;47.658;8.578;2024-02-04T10:15:35;2.65;;;0.30;;
66298;SDS011;53098;47.658;8.578;2024-02-04T10:18:04;0.30;;;0.20;;
66298;SDS011;53098;47.658;8.578;2024-02-04T10:20:29;0.40;;;0.20;;
66298;SDS011;53098;47.658;8.578;2024-02-04T10:22:54;0.53;;;0.20;;
66298;SDS011;53098;47.658;8.578;2024-02-04T10:25:20;0.50;;;0.30;;
66298;SDS011;53098;47.658;8.578;2024-02-04T10:27:45;1.67;;;0.57;;
66298;SDS011;53098;47.658;8.578;2024-02-04T10:30:11;0.25;;;0.22;;
66298;SDS011;53098;47.658;8.578;2024-02-04T10:32:37;0.28;;;0.20;;
66298;SDS011;53098;47.658;8.578;2024-02-04T10:35:02;0.67;;;0.50;;
66298;SDS011;53098;47.658;8.578;2024-02-04T10:37:27;1.00;;;0.43;;
66298;SDS011;53098;47.658;8.578;2024-02-04T10:39:53;0.40;;;0.20;;
66298;SDS011;53098;47.658;8.578;2024-02-04T10:42:19;1.20;;;0.30;;
66298;SDS011;53098;47.658;8.578;2024-02-04T10:44:48;0.30;;;0.30;;
66298;SDS011;53098;47.658;8.578;2024-02-04T10:47:15;0.80;;;0.20;;
66298;SDS011;53098;47.658;8.578;2024-02-04T10:49:41;1.40;;;0.40;;
66298;SDS011;53098;47.658;8.578;2024-02-04T10:52:10;0.43;;;0.30;;
66298;SDS011;53098;47.658;8.578;2024-02-04T10:54:36;1.08;;;0.30;;
66298;SDS011;53098;47.658;8.578;2024-02-04T10:57:03;0.45;;;0.40;;
66298;SDS011;53098;47.658;8.578;2024-02-04T10:59:30;0.70;;;0.30;;
66298;SDS011;53098;47.658;8.578;2024-02-04T11:01:56;2.95;;;0.57;;
66298;SDS011;53098;47.658;8.578;2024-02-04T11:04:21;0.60;;;0.40;;
66298;SDS011;53098;47.658;8.578;2024-02-04T11:06:47;0.88;;;0.40;;
66298;SDS011;53098;47.658;8.578;2024-02-04T11:09:13;0.28;;;0.28;;
66298;SDS011;53098;47.658;8.578;2024-02-04T11:11:38;0.85;;;0.40;;
66298;SDS011;53098;47.658;8.578;2024-02-04T11:14:05;0.65;;;0.30;;
66298;SDS011;53098;47.658;8.578;2024-02-04T11:25:19;0.93;;;0.40;;
66298;SDS011;53098;47.658;8.578;2024-02-04T11:27:15;0.57;;;0.43;;
66298;SDS011;53098;47.658;8.578;2024-02-04T11:29:40;1.37;;;0.47;;
66298;SDS011;53098;47.658;8.578;2024-02-04T11:32:06;1.17;;;0.40;;
66298;SDS011;53098;47.658;8.578;2024-02-04T11:34:32;0.50;;;0.40;;
66298;SDS011;53098;47.658;8.578;2024-02-04T11:36:57;1.33;;;0.43;;
66298;SDS011;53098;47.658;8.578;2024-02-04T11:39:23;0.53;;;0.43;;
66298;SDS011;53098;47.658;8.578;2024-02-04T11:41:48;0.98;;;0.45;;
66298;SDS011;53098;47.658;8.578;2024-02-04T11:44:23;0.93;;;0.38;;
66298;SDS011;53098;47.658;8.578;2024-02-04T11:46:49;0.65;;;0.32;;
66298;SDS011;53098;47.658;8.578;2024-02-04T11:49:18;1.08;;;0.43;;
66298;SDS011;53098;47.658;8.578;2024-02-04T11:52:01;1.10;;;0.60;;
66298;SDS011;53098;47.658;8.578;2024-02-04T11:56:52;2.33;;;0.40;;
66298;SDS011;53098;47.658;8.578;2024-02-04T11:59:17;1.55;;;0.63;;
66298;SDS011;53098;47.658;8.578;2024-02-04T12:01:42;2.00;;;0.50;;
66298;SDS011;53098;47.658;8.578;2024-02-04T12:04:08;1.37;;;0.53;;
66298;SDS011;53098;47.658;8.578;2024-02-04T12:06:34;4.40;;;0.75;;
66298;SDS011;53098;47.658;8.578;2024-02-04T12:08:59;1.58;;;0.70;;
66298;SDS011;53098;47.658;8.578;2024-02-04T12:11:25;2.15;;;0.80;;
66298;SDS011;53098;47.658;8.578;2024-02-04T12:13:50;1.45;;;0.80;;
66298;SDS011;53098;47.658;8.578;2024-02-04T12:16:16;3.60;;;0.87;;
66298;SDS011;53098;47.658;8.578;2024-02-04T12:18:50;4.37;;;1.00;;
66298;SDS011;53098;47.658;8.578;2024-02-04T12:21:15;4.38;;;1.08;;
66298;SDS011;53098;47.658;8.578;2024-02-04T12:23:41;2.67;;;1.00;;
66298;SDS011;53098;47.658;8.578;2024-02-04T12:26:06;3.30;;;1.10;;
66298;SDS011;53098;47.658;8.578;2024-02-04T12:28:31;4.43;;;1.33;;
66298;SDS011;53098;47.658;8.578;2024-02-04T12:30:57;3.57;;;1.30;;
66298;SDS011;53098;47.658;8.578;2024-02-04T12:33:22;3.33;;;1.00;;
66298;SDS011;53098;47.658;8.578;2024-02-04T12:35:50;3.37;;;0.90;;
66298;SDS011;53098;47.658;8.578;2024-02-04T12:38:16;2.53;;;1.00;;
66298;SDS011;53098;47.658;8.578;2024-02-04T12:40:41;3.77;;;0.90;;
66298;SDS011;53098;47.658;8.578;2024-02-04T12:43:06;4.33;;;0.97;;
66298;SDS011;53098;47.658;8.578;2024-02-04T12:45:31;1.73;;;0.80;;
66298;SDS011;53098;47.658;8.578;2024-02-04T12:47:57;2.43;;;0.83;;
66298;SDS011;53098;47.658;8.578;2024-02-04T12:50:23;4.22;;;0.85;;
66298;SDS011;53098;47.658;8.578;2024-02-04T12:52:49;4.70;;;1.00;;
66298;SDS011;53098;47.658;8.578;2024-02-04T12:55:22;3.80;;;1.05;;
66298;SDS011;53098;47.658;8.578;2024-02-04T12:57:47;3.90;;;1.00;;
66298;SDS011;53098;47.658;8.578;2024-02-04T13:00:13;2.07;;;0.67;;
66298;SDS011;53098;47.658;8.578;2024-02-04T13:02:38;2.95;;;0.75;;
66298;SDS011;53098;47.658;8.578;2024-02-04T13:05:03;2.03;;;0.68;;
66298;SDS011;53098;47.658;8.578;2024-02-04T13:07:29;2.20;;;0.63;;
66298;SDS011;53098;47.658;8.578;2024-02-04T13:09:57;3.60;;;0.83;;
66298;SDS011;53098;47.658;8.578;2024-02-04T13:12:23;2.58;;;0.65;;
66298;SDS011;53098;47.658;8.578;2024-02-04T13:14:48;4.57;;;0.73;;
66298;SDS011;53098;47.658;8.578;2024-02-04T13:17:13;2.53;;;0.40;;
66298;SDS011;53098;47.658;8.578;2024-02-04T13:19:38;4.67;;;0.70;;
66298;SDS011;53098;47.658;8.578;2024-02-04T13:22:04;2.95;;;0.60;;
66298;SDS011;53098;47.658;8.578;2024-02-04T13:24:30;2.63;;;0.68;;
66298;SDS011;53098;47.658;8.578;2024-02-04T13:26:55;5.63;;;0.80;;
66298;SDS011;53098;47.658;8.578;2024-02-04T13:29:21;3.55;;;1.10;;
66298;SDS011;53098;47.658;8.578;2024-02-04T13:31:46;6.57;;;0.80;;
66298;SDS011;53098;47.658;8.578;2024-02-04T13:34:11;1.77;;;0.60;;
66298;SDS011;53098;47.658;8.578;2024-02-04T13:36:36;3.57;;;0.60;;
66298;SDS011;53098;47.658;8.578;2024-02-04T13:39:02;3.97;;;0.70;;
66298;SDS011;53098;47.658;8.578;2024-02-04T13:41:27;3.07;;;0.97;;
66298;SDS011;53098;47.658;8.578;2024-02-04T13:43:52;1.80;;;0.60;;
66298;SDS011;53098;47.658;8.578;2024-02-04T13:46:17;5.60;;;0.80;;
66298;SDS011;53098;47.658;8.578;2024-02-04T13:48:43;1.33;;;0.50;;
66298;SDS011;53098;47.658;8.578;2024-02-04T13:51:08;3.03;;;0.90;;
66298;SDS011;53098;47.658;8.578;2024-02-04T13:53:33;3.23;;;1.10;;
66298;SDS011;53098;47.658;8.578;2024-02-04T13:55:59;3.03;;;0.60;;
66298;SDS011;53098;47.658;8.578;2024-02-04T13:58:24;2.30;;;0.53;;
66298;SDS011;53098;47.658;8.578;2024-02-04T14:00:49;3.17;;;0.70;;
66298;SDS011;53098;47.658;8.578;2024-02-04T14:03:14;4.10;;;0.57;;
66298;SDS011;53098;47.658;8.578;2024-02-04T14:05:40;2.73;;;0.87;;
66298;SDS011;53098;47.658;8.578;2024-02-04T14:08:06;6.87;;;0.87;;
66298;SDS011;53098;47.658;8.578;2024-02-04T14:10:31;4.45;;;0.82;;
66298;SDS011;53098;47.658;8.578;2024-02-04T14:12:56;5.50;;;0.70;;
66298;SDS011;53098;47.658;8.578;2024-02-04T14:15:21;10.10;;;1.10;;
66298;SDS011;53098;47.658;8.578;2024-02-04T14:17:47;3.90;;;0.70;;
66298;SDS011;53098;47.658;8.578;2024-02-04T14:20:12;7.90;;;1.13;;
66298;SDS011;53098;47.658;8.578;2024-02-04T14:22:37;4.87;;;0.87;;
66298;SDS011;53098;47.658;8.578;2024-02-04T14:25:03;4.93;;;1.00;;
66298;SDS011;53098;47.658;8.578;2024-02-04T14:27:28;4.85;;;0.70;;
66298;SDS011;53098;47.658;8.578;2024-02-04T14:29:53;6.00;;;1.20;;
66298;SDS011;53098;47.658;8.578;2024-02-04T14:32:18;4.07;;;1.13;;
66298;SDS011;53098;47.658;8.578;2024-02-04T14:34:44;6.43;;;0.63;;
66298;SDS011;53098;47.658;8.578;2024-02-04T14:37:09;3.65;;;1.25;;
66298;SDS011;53098;47.658;8.578;2024-02-04T14:39:34;5.67;;;1.30;;
66298;SDS011;53098;47.658;8.578;2024-02-04T14:42:00;4.47;;;1.07;;
66298;SDS011;53098;47.658;8.578;2024-02-04T14:44:25;6.27;;;1.30;;
66298;SDS011;53098;47.658;8.578;2024-02-04T14:46:50;3.27;;;0.97;;
66298;SDS011;53098;47.658;8.578;2024-02-04T14:49:15;4.20;;;1.03;;
66298;SDS011;53098;47.658;8.578;2024-02-04T14:51:41;7.13;;;1.20;;
66298;SDS011;53098;47.658;8.578;2024-02-04T14:54:06;6.60;;;1.33;;